Time;durP1;ratioP1;P1;durP2;ratioP2;P2;SDS_P1;SDS_P2;PMS_P1;PMS_P2;Temp;Humidity;BMP_temperature;BMP_pressure;BME280_temperature;BME280_humidity;BME280_pressure;Samples;Min_cycle;Max_cycle;Signal;HPM_P1;HPM_P2
2023/10/01 00:01:15;;;;;;;9.60;8.60;;;16.40;51.90;;;;;;20462;6855;279996;-71
2023/10/01 00:03:41;;;;;;;9.30;7.30;;;16.60;52.60;;;;;;20681;6855;119720;-72
2023/10/01 00:06:06;;;;;;;9.43;8.40;;;16.60;52.40;;;;;;20440;6854;309161;-72
2023/10/01 00:08:33;;;;;;;8.48;7.60;;;16.80;52.70;;;;;;20668;6855;120620;-72
2023/10/01 00:10:57;;;;;;;9.73;8.50;;;16.80;52.40;;;;;;20395;6855;324912;-72
2023/10/01 00:13:23;;;;;;;9.40;8.40;;;16.90;52.30;;;;;;20452;6855;308558;-72
2023/10/01 00:15:49;;;;;;;9.50;8.50;;;17.20;51.60;;;;;;20462;6855;338396;-71
2023/10/01 00:18:15;;;;;;;7.97;7.18;;;17.30;51.00;;;;;;20671;6855;117367;-71
2023/10/01 00:20:41;;;;;;;10.30;7.47;;;17.20;50.90;;;;;;20657;6855;118547;-72
2023/10/01 00:23:06;;;;;;;9.18;8.18;;;16.90;51.40;;;;;;20447;6855;309141;-72
2023/10/01 00:25:32;;;;;;;9.43;7.62;;;17.00;51.80;;;;;;20681;6855;117606;-71
2023/10/01 00:28:01;;;;;;;11.68;8.80;;;16.90;51.10;;;;;;20455;6855;340150;-72
2023/10/01 00:30:26;;;;;;;8.80;6.93;;;17.00;51.70;;;;;;20667;6855;118016;-71
2023/10/01 00:32:51;;;;;;;7.33;6.63;;;17.00;51.70;;;;;;20654;6855;121365;-71
2023/10/01 00:35:17;;;;;;;9.48;8.43;;;16.70;51.90;;;;;;20453;6855;309612;-71
2023/10/01 00:37:42;;;;;;;12.30;8.10;;;16.90;51.90;;;;;;20658;6855;117705;-71
2023/10/01 00:40:10;;;;;;;9.07;7.75;;;16.80;51.80;;;;;;20674;6855;117596;-71
2023/10/01 00:42:37;;;;;;;8.88;7.75;;;16.60;52.10;;;;;;20666;6855;123551;-71
2023/10/01 00:45:03;;;;;;;10.48;9.35;;;16.40;52.30;;;;;;20455;6855;295427;-71
2023/10/01 00:47:28;;;;;;;10.10;9.10;;;16.50;52.70;;;;;;20463;6855;280365;-71
2023/10/01 00:49:54;;;;;;;11.50;8.33;;;16.80;52.30;;;;;;20671;6855;118628;-71
2023/10/01 00:52:19;;;;;;;9.23;7.23;;;16.80;52.10;;;;;;20664;6855;118678;-71
2023/10/01 00:54:45;;;;;;;9.88;8.88;;;16.50;52.30;;;;;;20446;6855;279502;-71
2023/10/01 00:57:12;;;;;;;10.18;8.93;;;16.60;52.00;;;;;;20441;6855;285719;-71
2023/10/01 00:59:36;;;;;;;11.17;9.53;;;16.90;51.40;;;;;;20458;6855;283185;-71
2023/10/01 01:02:05;;;;;;;8.73;7.82;;;17.10;51.20;;;;;;20673;6855;121194;-71
2023/10/01 01:04:29;;;;;;;10.30;9.20;;;17.00;51.20;;;;;;20446;6855;279203;-71
2023/10/01 01:06:54;;;;;;;10.02;7.82;;;17.00;51.70;;;;;;20643;6855;122454;-71
2023/10/01 01:09:20;;;;;;;10.00;8.40;;;16.90;51.80;;;;;;20669;6855;118334;-71
2023/10/01 01:11:44;;;;;;;11.02;9.88;;;16.60;52.10;;;;;;20455;6855;281934;-71
2023/10/01 01:14:11;;;;;;;12.37;10.48;;;17.00;51.80;;;;;;20447;6855;308767;-71
2023/10/01 01:16:36;;;;;;;12.13;8.93;;;17.00;51.80;;;;;;20658;6854;121474;-72
2023/10/01 01:19:03;;;;;;;39.90;34.50;;;17.00;51.80;;;;;;20467;6855;284924;-71
2023/10/01 01:21:27;;;;;;;21.10;17.60;;;17.00;51.60;;;;;;20444;6855;313876;-71
2023/10/01 01:23:53;;;;;;;14.40;11.43;;;17.30;51.30;;;;;;20461;6855;284159;-71
2023/10/01 01:26:21;;;;;;;12.98;9.50;;;17.50;51.00;;;;;;20661;6855;119105;-71
2023/10/01 01:28:45;;;;;;;10.77;8.57;;;16.90;51.20;;;;;;20647;6855;118854;-71
2023/10/01 01:31:10;;;;;;;9.27;8.37;;;16.80;51.40;;;;;;20628;6855;117565;-71
2023/10/01 01:33:53;;;;;;;11.20;9.05;;;16.40;52.30;;;;;;20665;6855;118254;-71
2023/10/01 01:36:19;;;;;;;11.33;9.90;;;16.30;52.20;;;;;;20460;6855;308817;-72
2023/10/01 01:39:10;;;;;;;12.70;8.60;;;16.50;52.60;;;;;;20652;6855;118275;-72
2023/10/01 01:41:28;;;;;;;9.67;8.67;;;16.50;52.40;;;;;;20649;6855;117622;-72
2023/10/01 01:43:54;;;;;;;13.13;10.43;;;16.40;52.90;;;;;;20453;6855;317787;-72
2023/10/01 01:46:19;;;;;;;10.23;8.60;;;16.40;52.90;;;;;;20675;6855;118884;-72
2023/10/01 01:48:51;;;;;;;10.67;9.57;;;16.40;52.80;;;;;;20440;6855;326523;-72
2023/10/01 01:51:10;;;;;;;11.35;8.75;;;16.50;52.70;;;;;;20647;6855;120783;-72
2023/10/01 01:53:36;;;;;;;11.23;9.00;;;16.50;52.70;;;;;;20674;6855;117887;-71
2023/10/01 01:56:04;;;;;;;13.17;9.07;;;16.20;52.90;;;;;;20664;6855;120791;-71
2023/10/01 01:58:30;;;;;;;9.27;8.20;;;16.10;53.20;;;;;;20641;6855;118783;-71
2023/10/01 02:01:17;;;;;;;10.80;8.17;;;15.80;53.40;;;;;;20599;6855;123013;-71
2023/10/01 02:03:37;;;;;;;10.53;9.53;;;16.10;53.60;;;;;;20408;6855;330154;-71
2023/10/01 02:06:01;;;;;;;9.40;8.53;;;16.00;53.50;;;;;;20659;6855;117449;-71
2023/10/01 02:11:13;;;;;;;9.53;8.07;;;16.20;52.80;;;;;;20664;6855;117752;-71
2023/10/01 02:13:41;;;;;;;11.70;7.95;;;16.10;52.70;;;;;;20667;6855;118020;-71
2023/10/01 02:16:18;;;;;;;10.20;7.30;;;15.90;53.20;;;;;;20652;6855;121068;-71
2023/10/01 02:18:29;;;;;;;9.77;7.73;;;15.70;53.40;;;;;;20629;6855;118351;-71
2023/10/01 02:20:56;;;;;;;11.38;7.47;;;15.50;53.50;;;;;;20652;6855;118227;-71
2023/10/01 02:23:26;;;;;;;10.30;9.27;;;15.40;53.80;;;;;;20458;6855;283833;-71
2023/10/01 02:25:49;;;;;;;10.68;9.27;;;15.50;53.40;;;;;;20443;6855;279547;-71
2023/10/01 02:28:15;;;;;;;9.60;8.70;;;15.90;52.70;;;;;;20455;6854;308745;-72
2023/10/01 02:30:44;;;;;;;10.98;7.28;;;16.10;52.20;;;;;;20665;6855;118314;-72
2023/10/01 02:33:18;;;;;;;9.50;8.60;;;16.00;52.20;;;;;;20468;6855;310200;-72
2023/10/01 02:35:46;;;;;;;8.30;7.53;;;15.80;52.10;;;;;;20676;6855;117672;-71
2023/10/01 02:38:36;;;;;;;8.00;7.20;;;15.80;52.10;;;;;;20671;6855;118778;-71
2023/10/01 02:40:37;;;;;;;7.60;6.80;;;15.50;52.60;;;;;;20607;6855;123947;-71
2023/10/01 02:43:03;;;;;;;9.02;8.13;;;15.30;53.20;;;;;;20441;6855;280067;-71
2023/10/01 02:45:34;;;;;;;9.57;8.50;;;15.40;53.40;;;;;;20454;6855;309078;-71
2023/10/01 02:48:16;;;;;;;10.80;8.65;;;15.80;52.80;;;;;;20454;6855;282452;-71
2023/10/01 02:50:40;;;;;;;9.90;7.40;;;16.10;52.40;;;;;;20648;6855;121898;-71
2023/10/01 02:53:05;;;;;;;9.90;8.40;;;15.80;52.20;;;;;;20441;6855;309464;-71
2023/10/01 02:55:32;;;;;;;10.10;7.70;;;15.80;52.40;;;;;;20674;6855;117598;-72
2023/10/01 02:58:03;;;;;;;10.43;7.57;;;15.80;52.40;;;;;;20672;6855;120590;-71
2023/10/01 03:00:30;;;;;;;7.93;7.15;;;15.50;52.80;;;;;;20658;6855;117646;-71
2023/10/01 03:02:53;;;;;;;10.55;9.02;;;15.30;53.30;;;;;;20421;6855;308579;-71
2023/10/01 03:05:18;;;;;;;10.57;8.90;;;15.40;53.30;;;;;;20450;6855;279922;-71
2023/10/01 03:07:45;;;;;;;10.00;9.10;;;15.70;52.60;;;;;;20462;6855;299147;-71
2023/10/01 03:10:23;;;;;;;9.68;8.02;;;16.00;52.60;;;;;;20669;6855;118036;-72
2023/10/01 03:12:40;;;;;;;9.10;7.93;;;15.80;52.60;;;;;;20601;6855;117604;-72
2023/10/01 03:17:39;;;;;;;10.70;9.60;;;15.80;52.90;;;;;;20463;6855;340207;-71
2023/10/01 03:20:18;;;;;;;9.73;7.83;;;15.80;52.60;;;;;;20667;6855;118054;-72
2023/10/01 03:22:31;;;;;;;9.63;8.70;;;15.60;52.50;;;;;;20401;6855;309162;-72
2023/10/01 03:24:58;;;;;;;9.63;8.73;;;15.70;53.20;;;;;;20449;6855;310890;-71
2023/10/01 03:27:30;;;;;;;9.67;8.77;;;15.90;52.80;;;;;;20460;6855;310288;-72
2023/10/01 03:30:00;;;;;;;10.73;8.60;;;16.30;51.80;;;;;;20458;6855;293163;-72
2023/10/01 03:32:29;;;;;;;10.13;7.70;;;16.30;51.80;;;;;;20655;6855;123141;-72
2023/10/01 03:34:55;;;;;;;9.60;7.63;;;16.10;52.00;;;;;;20644;6855;147785;-72
2023/10/01 03:37:28;;;;;;;11.95;9.18;;;15.70;52.30;;;;;;20457;6855;292126;-72
2023/10/01 03:39:50;;;;;;;9.13;7.63;;;15.70;52.60;;;;;;20661;6854;119316;-72
2023/10/01 03:42:17;;;;;;;9.80;8.80;;;15.60;52.60;;;;;;20466;6855;281229;-72
2023/10/01 03:47:34;;;;;;;11.30;8.20;;;15.60;52.80;;;;;;20664;6855;117570;-72
2023/10/01 03:49:55;;;;;;;10.40;7.47;;;15.30;53.10;;;;;;20674;6855;120060;-72
2023/10/01 03:52:21;;;;;;;10.02;8.95;;;15.10;53.30;;;;;;20477;6855;280450;-72
2023/10/01 03:57:27;;;;;;;9.43;8.10;;;15.30;53.40;;;;;;20672;6855;118035;-72
2023/10/01 03:59:52;;;;;;;10.30;9.00;;;15.30;52.70;;;;;;20434;6855;308723;-72
2023/10/01 04:02:27;;;;;;;9.00;7.93;;;15.40;52.80;;;;;;20670;6855;120332;-72
2023/10/01 04:05:01;;;;;;;10.60;9.50;;;15.30;52.80;;;;;;20460;6855;314669;-72
2023/10/01 04:07:42;;;;;;;16.07;8.13;;;15.30;52.60;;;;;;20669;6855;118167;-72
2023/10/01 04:09:58;;;;;;;9.17;7.43;;;14.90;53.10;;;;;;20645;6855;119863;-72
2023/10/01 04:12:33;;;;;;;10.67;9.23;;;15.00;53.00;;;;;;20468;6855;278695;-72
2023/10/01 04:14:49;;;;;;;9.10;7.53;;;15.00;53.00;;;;;;20579;6855;123664;-72
2023/10/01 04:17:18;;;;;;;8.55;7.65;;;14.90;53.00;;;;;;20678;6855;118179;-72
2023/10/01 04:19:43;;;;;;;8.43;7.63;;;14.70;53.40;;;;;;20670;6855;122348;-72
2023/10/01 04:22:09;;;;;;;9.68;8.77;;;14.50;53.90;;;;;;20385;6855;308650;-72
2023/10/01 04:24:35;;;;;;;11.60;8.10;;;14.70;53.80;;;;;;20673;6855;118888;-71
2023/10/01 04:27:18;;;;;;;10.00;7.50;;;14.70;53.80;;;;;;20645;6855;124049;-71
2023/10/01 04:29:44;;;;;;;10.35;7.87;;;14.40;54.30;;;;;;20629;6855;117729;-70
2023/10/01 04:31:55;;;;;;;8.53;7.73;;;14.50;54.40;;;;;;20548;6855;120266;-69
2023/10/01 04:34:18;;;;;;;9.77;7.77;;;14.30;54.40;;;;;;20650;6855;117289;-69
2023/10/01 04:36:48;;;;;;;10.25;8.95;;;14.50;54.70;;;;;;20413;6855;308578;-69
2023/10/01 04:39:10;;;;;;;9.50;7.27;;;14.50;54.70;;;;;;20621;6855;123165;-68
2023/10/01 04:41:35;;;;;;;10.43;7.33;;;14.60;54.30;;;;;;20630;6855;118042;-70
2023/10/01 04:44:07;;;;;;;7.72;6.97;;;14.50;54.40;;;;;;20624;6855;117820;-70
2023/10/01 04:46:37;;;;;;;10.87;9.17;;;14.30;54.60;;;;;;20427;6855;286212;-69
2023/10/01 04:49:07;;;;;;;9.50;8.13;;;14.60;54.20;;;;;;20634;6855;119899;-69
2023/10/01 04:51:44;;;;;;;10.43;8.00;;;14.40;54.10;;;;;;20634;6854;120035;-69
2023/10/01 04:53:51;;;;;;;10.13;9.13;;;14.40;54.10;;;;;;20393;6855;316801;-69
2023/10/01 04:56:25;;;;;;;9.25;8.35;;;14.60;54.00;;;;;;20637;6855;121441;-69
2023/10/01 04:58:54;;;;;;;10.43;8.23;;;14.50;53.90;;;;;;20644;6855;117815;-69
2023/10/01 05:01:27;;;;;;;10.17;7.60;;;14.30;54.20;;;;;;20659;6855;122654;-69
2023/10/01 05:03:52;;;;;;;9.27;7.57;;;14.20;54.60;;;;;;20655;6855;117635;-70
2023/10/01 05:06:19;;;;;;;9.40;7.67;;;14.00;54.80;;;;;;20652;6855;117425;-69
2023/10/01 05:08:43;;;;;;;10.37;7.30;;;14.00;55.00;;;;;;20637;6855;119645;-69
2023/10/01 05:11:10;;;;;;;8.70;7.50;;;13.90;55.20;;;;;;20657;6855;123174;-68
2023/10/01 05:13:34;;;;;;;10.65;9.52;;;13.90;55.30;;;;;;20434;6855;285181;-69
2023/10/01 05:16:00;;;;;;;11.77;9.87;;;14.10;54.80;;;;;;20439;6855;279137;-68
2023/10/01 05:18:26;;;;;;;8.97;8.00;;;14.60;54.00;;;;;;20657;6855;117942;-69
2023/10/01 05:20:58;;;;;;;9.43;8.45;;;14.60;53.80;;;;;;20635;6855;119901;-68
2023/10/01 05:23:17;;;;;;;10.88;9.77;;;14.40;54.10;;;;;;20402;6855;279297;-67
2023/10/01 05:25:45;;;;;;;10.73;9.63;;;14.50;53.90;;;;;;20441;6855;279952;-68
2023/10/01 05:28:23;;;;;;;9.37;8.43;;;14.80;53.30;;;;;;20449;6855;307799;-69
2023/10/01 05:30:42;;;;;;;8.93;8.03;;;15.10;53.10;;;;;;20622;6855;120106;-69
2023/10/01 05:33:06;;;;;;;10.93;9.67;;;15.00;53.10;;;;;;20246;6855;309121;-69
2023/10/01 05:35:35;;;;;;;12.05;8.38;;;14.90;53.30;;;;;;20622;6855;117530;-68
2023/10/01 05:38:07;;;;;;;10.73;8.27;;;14.90;53.30;;;;;;20579;6855;120255;-67
2023/10/01 05:40:29;;;;;;;10.67;7.70;;;14.70;53.80;;;;;;20556;6855;118845;-67
2023/10/01 05:42:54;;;;;;;10.83;7.93;;;14.60;54.30;;;;;;20567;6855;120125;-67
2023/10/01 05:45:19;;;;;;;14.07;10.00;;;14.50;54.70;;;;;;20381;6855;312811;-67
2023/10/01 05:47:51;;;;;;;11.17;9.07;;;14.70;54.80;;;;;;20614;6855;119691;-68
2023/10/01 05:50:18;;;;;;;9.80;8.47;;;14.70;54.70;;;;;;20635;6855;117649;-68
2023/10/01 05:52:45;;;;;;;11.07;8.47;;;14.70;54.70;;;;;;20644;6855;117573;-68
2023/10/01 05:55:19;;;;;;;11.80;10.50;;;14.60;54.90;;;;;;20445;6855;297741;-68
2023/10/01 05:57:44;;;;;;;9.73;8.73;;;15.00;54.80;;;;;;20563;6855;117720;-69
2023/10/01 06:00:17;;;;;;;11.00;8.63;;;14.90;54.70;;;;;;20572;6855;117936;-69
2023/10/01 06:02:42;;;;;;;9.90;8.10;;;14.90;54.90;;;;;;20531;6854;120942;-69
2023/10/01 06:05:25;;;;;;;12.00;9.77;;;14.80;55.00;;;;;;20366;6855;282851;-70
2023/10/01 06:07:41;;;;;;;12.93;9.70;;;15.00;54.60;;;;;;20335;6855;313922;-69
2023/10/01 06:10:02;;;;;;;10.00;9.00;;;15.50;54.20;;;;;;20370;6855;285780;-69
2023/10/01 06:12:29;;;;;;;8.97;7.57;;;16.00;53.60;;;;;;20603;6855;123509;-69
2023/10/01 06:15:03;;;;;;;8.38;7.18;;;16.20;53.50;;;;;;20624;6855;118680;-69
2023/10/01 06:17:18;;;;;;;8.70;7.80;;;16.20;53.50;;;;;;20404;6855;309958;-69
2023/10/01 06:19:46;;;;;;;9.47;8.47;;;17.20;50.30;;;;;;20402;6855;299371;-69
2023/10/01 06:22:14;;;;;;;10.50;7.47;;;17.20;50.60;;;;;;20622;6855;123566;-69
2023/10/01 06:24:43;;;;;;;8.27;7.47;;;17.40;50.40;;;;;;20395;6855;311140;-69
2023/10/01 06:27:09;;;;;;;8.73;7.83;;;17.60;49.10;;;;;;20437;6855;280906;-69
2023/10/01 06:29:40;;;;;;;7.82;7.03;;;18.00;48.30;;;;;;20647;6855;121877;-69
2023/10/01 06:32:02;;;;;;;8.00;6.70;;;18.10;48.50;;;;;;20624;6855;117296;-69
2023/10/01 06:34:31;;;;;;;8.40;7.50;;;17.90;48.70;;;;;;20446;6855;309583;-69
2023/10/01 06:36:57;;;;;;;7.80;7.00;;;18.10;47.60;;;;;;20619;6855;117515;-68
2023/10/01 06:39:23;;;;;;;8.67;7.20;;;18.20;47.90;;;;;;20431;6855;289755;-70
2023/10/01 06:41:52;;;;;;;7.47;6.80;;;18.40;46.90;;;;;;20432;6855;309528;-71
2023/10/01 06:44:16;;;;;;;8.53;7.73;;;18.70;46.20;;;;;;20429;6855;308879;-70
2023/10/01 06:46:41;;;;;;;6.87;6.27;;;19.10;45.50;;;;;;20614;6855;118576;-72
2023/10/01 06:49:08;;;;;;;7.80;7.10;;;19.10;45.90;;;;;;20428;6855;283819;-72
2023/10/01 06:51:43;;;;;;;8.52;7.72;;;19.30;45.20;;;;;;20431;6855;309104;-73
2023/10/01 06:53:58;;;;;;;9.02;8.13;;;19.50;44.50;;;;;;20411;6855;293834;-71
2023/10/01 06:56:24;;;;;;;7.25;6.55;;;19.60;44.30;;;;;;20657;6855;122379;-73
2023/10/01 07:01:35;;;;;;;8.77;7.97;;;18.90;46.20;;;;;;20450;6855;283849;-70
2023/10/01 07:04:01;;;;;;;9.50;8.60;;;18.90;45.70;;;;;;20441;6855;314707;-71
2023/10/01 07:06:28;;;;;;;12.53;8.10;;;19.00;45.50;;;;;;20634;6855;117121;-71
2023/10/01 07:08:53;;;;;;;9.25;8.38;;;18.90;45.80;;;;;;20412;6855;314993;-71
2023/10/01 07:11:18;;;;;;;8.03;7.23;;;19.00;45.90;;;;;;20652;6855;121843;-71
2023/10/01 07:13:43;;;;;;;9.30;6.97;;;18.90;46.20;;;;;;20652;6853;121737;-70
2023/10/01 07:16:09;;;;;;;9.07;7.00;;;18.50;48.10;;;;;;20651;6855;123150;-68
2023/10/01 07:18:37;;;;;;;8.20;7.40;;;18.50;47.30;;;;;;20654;6855;118592;-70
2023/10/01 07:21:02;;;;;;;7.90;6.83;;;18.40;47.70;;;;;;20639;6855;123422;-70
2023/10/01 07:23:27;;;;;;;12.00;8.45;;;18.40;47.60;;;;;;20449;6855;326604;-70
2023/10/01 07:26:00;;;;;;;10.30;8.73;;;18.70;47.00;;;;;;20449;6855;282791;-68
2023/10/01 07:28:24;;;;;;;9.53;7.47;;;19.20;46.20;;;;;;20646;6863;118072;-70
2023/10/01 07:30:56;;;;;;;8.17;7.30;;;19.30;46.30;;;;;;20635;6863;120468;-68
2023/10/01 07:33:20;;;;;;;9.83;8.60;;;19.20;46.50;;;;;;20433;6863;278969;-70
2023/10/01 07:35:44;;;;;;;9.60;8.60;;;19.40;45.80;;;;;;20420;6863;308732;-70
2023/10/01 07:38:10;;;;;;;8.17;7.37;;;19.80;45.50;;;;;;20619;6863;121093;-70
2023/10/01 07:40:52;;;;;;;12.97;7.60;;;19.80;45.60;;;;;;20622;6863;119551;-69
2023/10/01 07:43:01;;;;;;;8.63;7.83;;;19.70;46.00;;;;;;20380;6863;309730;-70
2023/10/01 07:45:28;;;;;;;8.35;6.93;;;19.90;45.40;;;;;;20656;6863;117644;-70
2023/10/01 07:47:52;;;;;;;8.15;7.40;;;20.00;45.50;;;;;;20660;6864;117478;-70
2023/10/01 07:50:18;;;;;;;9.63;6.93;;;20.00;45.90;;;;;;20661;6864;117934;-70
2023/10/01 07:52:44;;;;;;;13.63;7.40;;;19.90;46.10;;;;;;20626;6865;123248;-69
2023/10/01 07:55:29;;;;;;;10.93;8.27;;;19.80;46.30;;;;;;20406;6865;280972;-70
2023/10/01 07:58:22;;;;;;;10.20;8.47;;;20.70;45.10;;;;;;20427;6865;285128;-69
2023/10/01 08:00:29;;;;;;;9.82;8.45;;;20.60;45.00;;;;;;20362;6865;311798;-70
2023/10/01 08:05:38;;;;;;;9.37;8.40;;;21.70;43.50;;;;;;19313;7236;323528;-69
2023/10/01 08:08:01;;;;;;;9.83;8.57;;;21.70;43.50;;;;;;19859;6865;284490;-69
2023/10/01 08:10:29;;;;;;;9.30;8.40;;;22.00;42.90;;;;;;20432;6861;309762;-70
2023/10/01 08:18:34;;;;;;;8.70;7.17;;;22.00;42.90;;;;;;20581;6861;119162;-70
2023/10/01 08:20:46;;;;;;;9.27;7.87;;;21.90;43.30;;;;;;20362;6861;281122;-70
2023/10/01 08:23:23;;;;;;;10.57;8.37;;;22.20;42.90;;;;;;20380;6861;315172;-71
2023/10/01 08:25:51;;;;;;;7.97;6.80;;;22.50;42.40;;;;;;20600;6859;120665;-70
2023/10/01 08:28:43;;;;;;;8.77;7.37;;;22.70;42.80;;;;;;20600;6861;116487;-71
2023/10/01 08:30:43;;;;;;;9.02;7.90;;;22.60;43.00;;;;;;20211;6861;279638;-70
2023/10/01 08:33:19;;;;;;;8.67;6.70;;;22.80;42.20;;;;;;20593;6863;124033;-71
2023/10/01 08:36:01;;;;;;;10.10;7.60;;;22.90;42.50;;;;;;20602;6863;125385;-71
2023/10/01 08:38:29;;;;;;;9.43;7.10;;;22.90;42.90;;;;;;20586;6863;125144;-71
2023/10/01 08:40:52;;;;;;;10.13;8.50;;;22.90;43.10;;;;;;20404;6848;280508;-71
2023/10/01 08:43:16;;;;;;;10.55;8.00;;;23.20;42.10;;;;;;20443;6848;311726;-71
2023/10/01 08:45:43;;;;;;;9.33;8.13;;;23.70;41.00;;;;;;20432;6848;300012;-72
2023/10/01 08:48:08;;;;;;;9.57;8.23;;;24.00;40.60;;;;;;20396;6848;305640;-73
2023/10/01 08:50:36;;;;;;;9.13;8.00;;;24.30;39.90;;;;;;20435;6848;341534;-71
2023/10/01 08:53:12;;;;;;;9.60;7.50;;;24.60;39.80;;;;;;20644;6848;123840;-71
2023/10/01 08:56:04;;;;;;;11.00;7.30;;;24.60;40.20;;;;;;20670;6848;117422;-69
2023/10/01 09:00:49;;;;;;;8.37;6.70;;;24.30;41.00;;;;;;20652;6848;119156;-72
2023/10/01 09:03:26;;;;;;;8.00;6.40;;;24.10;42.00;;;;;;20624;6863;117644;-72
2023/10/01 09:05:46;;;;;;;9.30;8.00;;;24.10;41.30;;;;;;20384;6856;306371;-74
2023/10/01 09:08:54;;;;;;;8.00;7.20;;;24.30;40.30;;;;;;20584;6856;121327;-71
2023/10/01 09:10:38;;;;;;;9.10;8.10;;;24.50;40.70;;;;;;20094;6863;314381;-69
2023/10/01 09:13:03;;;;;;;9.00;7.47;;;24.70;39.90;;;;;;20641;6848;119248;-70
2023/10/01 09:15:29;;;;;;;10.53;8.80;;;24.80;40.20;;;;;;20443;6848;285323;-70
2023/10/01 09:17:58;;;;;;;10.07;8.20;;;25.00;39.50;;;;;;20434;6848;340820;-70
2023/10/01 09:20:38;;;;;;;8.10;7.27;;;25.30;38.70;;;;;;20673;6848;120230;-70
2023/10/01 09:23:03;;;;;;;7.93;7.00;;;25.30;39.00;;;;;;20493;6848;121248;-70
2023/10/01 09:25:30;;;;;;;9.77;7.82;;;25.40;38.70;;;;;;20457;6848;347591;-70
2023/10/01 09:27:57;;;;;;;10.53;8.33;;;25.40;38.70;;;;;;20459;6848;279204;-72
2023/10/01 09:30:26;;;;;;;9.97;8.20;;;25.60;38.10;;;;;;20460;6848;313741;-70
2023/10/01 09:32:51;;;;;;;8.98;7.82;;;26.00;38.00;;;;;;20628;6848;122405;-70
2023/10/01 09:35:30;;;;;;;8.23;7.10;;;26.00;38.20;;;;;;20662;6848;118062;-70
2023/10/01 09:37:52;;;;;;;8.70;6.90;;;25.90;39.40;;;;;;20633;6846;119029;-70
2023/10/01 09:42:57;;;;;;;9.10;6.73;;;25.80;37.90;;;;;;20661;6847;118705;-71
2023/10/01 09:45:26;;;;;;;7.97;6.80;;;25.80;38.10;;;;;;20676;6848;118673;-69
2023/10/01 09:47:56;;;;;;;9.73;8.15;;;25.70;38.30;;;;;;20504;6848;309524;-70
2023/10/01 09:50:18;;;;;;;8.77;7.87;;;25.80;38.00;;;;;;20474;6848;279069;-71
2023/10/01 09:52:48;;;;;;;9.00;8.03;;;26.10;37.60;;;;;;20462;6848;339659;-72
2023/10/01 09:55:26;;;;;;;11.97;8.37;;;26.30;37.30;;;;;;20479;6848;308564;-71
2023/10/01 09:57:40;;;;;;;7.47;6.77;;;26.40;36.90;;;;;;20652;6848;118724;-71
2023/10/01 10:00:21;;;;;;;10.77;7.85;;;26.40;36.80;;;;;;20477;6848;279942;-72
2023/10/01 10:02:51;;;;;;;9.93;8.27;;;26.30;37.10;;;;;;20460;6848;279936;-71
2023/10/01 10:05:24;;;;;;;11.27;8.67;;;26.50;37.30;;;;;;20454;6848;299986;-71
2023/10/01 10:07:40;;;;;;;14.87;8.07;;;26.70;37.10;;;;;;20659;6848;118134;-71
2023/10/01 10:10:02;;;;;;;11.93;8.43;;;26.70;37.40;;;;;;20466;6848;283304;-71
2023/10/01 10:12:33;;;;;;;13.10;7.43;;;26.60;37.40;;;;;;20683;6848;119195;-71
2023/10/01 10:14:58;;;;;;;10.07;7.90;;;26.60;37.40;;;;;;20446;6848;308285;-73
2023/10/01 10:17:19;;;;;;;10.35;8.48;;;26.70;37.50;;;;;;20447;6848;309819;-72
2023/10/01 10:19:58;;;;;;;10.43;8.65;;;26.90;36.40;;;;;;20498;6848;308646;-74
2023/10/01 10:22:25;;;;;;;10.10;7.27;;;27.00;37.30;;;;;;20684;6848;119684;-75
2023/10/01 10:24:54;;;;;;;9.40;8.30;;;27.00;37.20;;;;;;20466;6848;305539;-73
2023/10/01 10:27:24;;;;;;;9.75;7.75;;;27.00;37.30;;;;;;20678;6848;121337;-73
2023/10/01 10:29:57;;;;;;;9.60;8.48;;;26.90;37.00;;;;;;20474;6848;313005;-73
2023/10/01 10:32:28;;;;;;;8.83;7.43;;;26.80;36.70;;;;;;20688;6848;119633;-75
2023/10/01 10:35:03;;;;;;;8.23;7.43;;;26.80;36.50;;;;;;20619;6848;121457;-80
2023/10/01 10:37:36;;;;;;;10.68;8.38;;;26.80;37.00;;;;;;20473;6848;310348;-73
2023/10/01 10:40:48;;;;;;;9.80;8.07;;;26.70;36.90;;;;;;20464;6848;279570;-75
2023/10/01 10:42:33;;;;;;;9.30;7.87;;;27.00;36.00;;;;;;20370;6848;125103;-75
2023/10/01 10:45:19;;;;;;;10.70;7.90;;;27.00;36.10;;;;;;20648;6848;121648;-72
2023/10/01 10:48:02;;;;;;;9.83;8.57;;;26.70;36.30;;;;;;20463;6848;292500;-74
2023/10/01 10:50:50;;;;;;;9.47;7.30;;;26.70;35.10;;;;;;20657;6846;119187;-75
2023/10/01 10:53:20;;;;;;;10.60;8.60;;;26.80;35.60;;;;;;20452;6847;309284;-76
2023/10/01 10:56:04;;;;;;;10.23;7.40;;;26.70;35.30;;;;;;20664;6848;118721;-79
2023/10/01 10:58:25;;;;;;;9.43;7.27;;;26.70;35.30;;;;;;20634;6848;118366;-79
2023/10/01 11:00:50;;;;;;;11.07;8.65;;;26.50;35.80;;;;;;20435;6848;337843;-74
2023/10/01 11:03:16;;;;;;;9.57;7.50;;;26.50;35.80;;;;;;20675;6848;120851;-74
2023/10/01 11:05:52;;;;;;;9.65;8.35;;;26.60;35.90;;;;;;20404;6848;309137;-76
2023/10/01 11:08:27;;;;;;;13.03;8.67;;;26.60;35.10;;;;;;20669;6848;118867;-77
2023/10/01 11:10:56;;;;;;;9.43;7.67;;;26.60;35.40;;;;;;20652;6848;118850;-74
2023/10/01 11:13:37;;;;;;;10.93;8.03;;;26.40;35.50;;;;;;20660;6848;118066;-77
2023/10/01 11:16:13;;;;;;;11.30;7.90;;;26.30;35.90;;;;;;20659;6848;121983;-75
2023/10/01 11:18:28;;;;;;;10.35;7.82;;;26.10;36.20;;;;;;20649;6848;120684;-73
2023/10/01 11:21:01;;;;;;;13.13;8.33;;;26.10;36.70;;;;;;20622;6848;124707;-73
2023/10/01 11:23:20;;;;;;;11.30;8.27;;;26.00;36.70;;;;;;20654;6848;121622;-74
2023/10/01 11:25:47;;;;;;;10.77;8.80;;;26.10;36.70;;;;;;20443;6848;295119;-72
2023/10/01 11:28:11;;;;;;;10.53;7.67;;;26.30;36.00;;;;;;20643;6848;117627;-71
2023/10/01 11:30:42;;;;;;;11.10;9.10;;;26.50;36.00;;;;;;20418;6848;311926;-75
2023/10/01 11:33:13;;;;;;;8.60;7.70;;;26.60;35.30;;;;;;20459;6848;119528;-72
2023/10/01 11:35:59;;;;;;;9.27;8.07;;;26.70;35.60;;;;;;20635;6848;117581;-72
2023/10/01 11:38:18;;;;;;;8.50;7.53;;;26.50;36.30;;;;;;20552;6848;117862;-72
2023/10/01 11:43:32;;;;;;;9.67;7.47;;;26.60;36.40;;;;;;20622;6848;117534;-74
2023/10/01 11:46:23;;;;;;;11.57;7.77;;;26.80;37.20;;;;;;20659;6848;119219;-73
2023/10/01 11:48:56;;;;;;;10.30;8.60;;;26.70;36.50;;;;;;20420;6848;338339;-74
2023/10/01 11:51:26;;;;;;;8.57;7.50;;;26.90;36.40;;;;;;20604;6848;117899;-75
2023/10/01 11:53:58;;;;;;;11.15;8.73;;;27.00;36.40;;;;;;20417;6848;313385;-73
2023/10/01 11:56:23;;;;;;;9.30;8.00;;;27.10;35.40;;;;;;20364;6848;316535;-74
2023/10/01 11:58:49;;;;;;;10.32;8.75;;;27.40;35.30;;;;;;20429;6848;341822;-72
2023/10/01 12:01:14;;;;;;;9.13;8.00;;;27.50;35.30;;;;;;20459;6846;285009;-73
2023/10/01 12:03:57;;;;;;;9.60;8.57;;;27.70;34.70;;;;;;20445;6847;309117;-76
2023/10/01 12:06:06;;;;;;;9.67;8.67;;;27.90;34.20;;;;;;20406;6847;309677;-74
2023/10/01 12:08:35;;;;;;;9.83;8.83;;;28.00;33.90;;;;;;20463;6848;304081;-74
2023/10/01 12:14:04;;;;;;;10.13;8.43;;;28.10;33.90;;;;;;20476;6848;283501;-75
2023/10/01 12:16:12;;;;;;;9.60;7.73;;;28.10;33.60;;;;;;20639;6848;117866;-75
2023/10/01 12:18:46;;;;;;;9.17;8.27;;;27.90;34.10;;;;;;20457;6848;278724;-74
2023/10/01 12:21:24;;;;;;;10.27;8.80;;;27.90;34.90;;;;;;20427;6848;291771;-71
2023/10/01 12:23:33;;;;;;;10.13;7.80;;;27.90;35.00;;;;;;20609;6848;119934;-71
2023/10/01 12:26:31;;;;;;;9.90;8.43;;;27.90;35.00;;;;;;20436;6848;309376;-71
2023/10/01 12:28:25;;;;;;;9.03;8.13;;;27.90;34.10;;;;;;20379;6848;279694;-70
2023/10/01 12:31:10;;;;;;;11.27;8.80;;;28.00;34.40;;;;;;20422;6848;340580;-74
2023/10/01 12:33:38;;;;;;;9.87;7.77;;;28.10;33.80;;;;;;20684;6848;66988;-78
2023/10/01 12:39:03;;;;;;;10.97;8.50;;;27.50;34.60;;;;;;20462;6848;313185;-76
2023/10/01 12:41:19;;;;;;;8.77;7.57;;;27.50;35.10;;;;;;20655;6848;119358;-76
2023/10/01 12:43:44;;;;;;;8.67;7.20;;;27.50;35.10;;;;;;20656;6848;120417;-75
2023/10/01 12:46:10;;;;;;;9.97;7.60;;;27.40;35.60;;;;;;20689;6848;118531;-76
2023/10/01 12:48:35;;;;;;;9.63;7.40;;;27.30;35.60;;;;;;20703;6848;124683;-73
2023/10/01 12:51:03;;;;;;;11.50;9.07;;;27.10;35.60;;;;;;20432;6848;308757;-75
2023/10/01 12:53:28;;;;;;;9.53;8.30;;;27.30;34.90;;;;;;20424;6848;284203;-78
2023/10/01 12:55:52;;;;;;;11.73;8.70;;;27.50;34.90;;;;;;20459;6848;335517;-74
2023/10/01 12:58:29;;;;;;;10.03;7.50;;;27.70;34.40;;;;;;20686;6848;121041;-74
2023/10/01 13:00:47;;;;;;;9.83;8.33;;;27.70;34.40;;;;;;20430;6848;311069;-75
2023/10/01 13:03:16;;;;;;;9.05;8.15;;;27.70;33.50;;;;;;20479;6848;343743;-73
2023/10/01 13:05:43;;;;;;;10.10;8.17;;;27.80;34.20;;;;;;20434;6848;339088;-77
2023/10/01 13:08:05;;;;;;;8.97;7.83;;;27.90;33.90;;;;;;20452;6848;316175;-75
2023/10/01 13:10:37;;;;;;;9.50;8.00;;;27.90;34.00;;;;;;20685;6848;119137;-76